sensor_id;sensor_type;location;lat;lon;timestamp;temperature;humidity
17845;DHT22;9047;53.486;10.218;2023-07-30T00:02:05;15.70;99.90
17845;DHT22;9047;53.486;10.218;2023-07-30T00:04:33;15.70;99.90
17845;DHT22;9047;53.486;10.218;2023-07-30T00:07:02;15.70;99.90
17845;DHT22;9047;53.486;10.218;2023-07-30T00:09:28;15.70;99.90
17845;DHT22;9047;53.486;10.218;2023-07-30T00:11:55;15.80;99.90
17845;DHT22;9047;53.486;10.218;2023-07-30T00:14:22;15.80;99.90
17845;DHT22;9047;53.486;10.218;2023-07-30T00:16:49;15.70;99.90
17845;DHT22;9047;53.486;10.218;2023-07-30T00:19:15;15.80;99.90
17845;DHT22;9047;53.486;10.218;2023-07-30T00:21:43;15.80;99.90
17845;DHT22;9047;53.486;10.218;2023-07-30T00:24:12;15.80;99.90
17845;DHT22;9047;53.486;10.218;2023-07-30T00:26:38;15.80;99.90
17845;DHT22;9047;53.486;10.218;2023-07-30T00:29:05;15.80;99.90
17845;DHT22;9047;53.486;10.218;2023-07-30T00:31:32;15.80;99.90
17845;DHT22;9047;53.486;10.218;2023-07-30T00:33:59;15.80;99.90
17845;DHT22;9047;53.486;10.218;2023-07-30T00:36:25;15.80;99.90
17845;DHT22;9047;53.486;10.218;2023-07-30T00:38:53;15.90;99.90
17845;DHT22;9047;53.486;10.218;2023-07-30T00:41:20;15.90;99.90
17845;DHT22;9047;53.486;10.218;2023-07-30T00:43:47;15.90;99.90
17845;DHT22;9047;53.486;10.218;2023-07-30T00:46:14;15.90;99.90
17845;DHT22;9047;53.486;10.218;2023-07-30T00:48:41;15.90;99.90
17845;DHT22;9047;53.486;10.218;2023-07-30T00:51:09;15.90;99.90
17845;DHT22;9047;53.486;10.218;2023-07-30T00:53:38;15.90;99.90
17845;DHT22;9047;53.486;10.218;2023-07-30T00:56:06;15.80;99.90
17845;DHT22;9047;53.486;10.218;2023-07-30T00:58:33;15.80;99.90
17845;DHT22;9047;53.486;10.218;2023-07-30T01:01:01;15.90;99.90
17845;DHT22;9047;53.486;10.218;2023-07-30T01:03:28;15.90;99.90
17845;DHT22;9047;53.486;10.218;2023-07-30T01:05:56;15.90;99.90
17845;DHT22;9047;53.486;10.218;2023-07-30T01:08:22;15.80;99.90
17845;DHT22;9047;53.486;10.218;2023-07-30T01:10:51;15.90;99.90
17845;DHT22;9047;53.486;10.218;2023-07-30T01:13:19;15.90;99.90
17845;DHT22;9047;53.486;10.218;2023-07-30T01:15:47;15.90;99.90
17845;DHT22;9047;53.486;10.218;2023-07-30T01:18:14;15.90;99.90
17845;DHT22;9047;53.486;10.218;2023-07-30T01:24:06;15.90;99.90
17845;DHT22;9047;53.486;10.218;2023-07-30T01:26:37;15.90;99.90
17845;DHT22;9047;53.486;10.218;2023-07-30T01:29:09;15.90;99.90
17845;DHT22;9047;53.486;10.218;2023-07-30T01:31:38;15.90;99.90
17845;DHT22;9047;53.486;10.218;2023-07-30T01:34:07;15.90;99.90
17845;DHT22;9047;53.486;10.218;2023-07-30T01:36:37;15.90;99.90
17845;DHT22;9047;53.486;10.218;2023-07-30T01:39:08;15.90;99.90
17845;DHT22;9047;53.486;10.218;2023-07-30T01:41:36;15.90;99.90
17845;DHT22;9047;53.486;10.218;2023-07-30T01:44:03;15.90;99.90
17845;DHT22;9047;53.486;10.218;2023-07-30T01:46:30;15.90;99.90
17845;DHT22;9047;53.486;10.218;2023-07-30T01:48:57;15.80;99.90
17845;DHT22;9047;53.486;10.218;2023-07-30T01:51:24;15.70;99.90
17845;DHT22;9047;53.486;10.218;2023-07-30T01:53:51;15.70;99.90
17845;DHT22;9047;53.486;10.218;2023-07-30T01:56:19;15.70;99.90
17845;DHT22;9047;53.486;10.218;2023-07-30T01:58:46;15.70;99.90
17845;DHT22;9047;53.486;10.218;2023-07-30T02:01:13;15.60;99.90
17845;DHT22;9047;53.486;10.218;2023-07-30T02:03:40;15.60;99.90
17845;DHT22;9047;53.486;10.218;2023-07-30T02:06:07;15.60;99.90
17845;DHT22;9047;53.486;10.218;2023-07-30T02:08:34;15.50;99.90
17845;DHT22;9047;53.486;10.218;2023-07-30T02:11:00;15.50;99.90
17845;DHT22;9047;53.486;10.218;2023-07-30T02:13:29;15.50;99.90
17845;DHT22;9047;53.486;10.218;2023-07-30T02:15:55;15.50;99.90
17845;DHT22;9047;53.486;10.218;2023-07-30T02:18:22;15.50;99.90
17845;DHT22;9047;53.486;10.218;2023-07-30T02:20:49;15.50;99.90
17845;DHT22;9047;53.486;10.218;2023-07-30T02:23:16;15.50;99.90
17845;DHT22;9047;53.486;10.218;2023-07-30T02:25:43;15.50;99.90
17845;DHT22;9047;53.486;10.218;2023-07-30T02:28:11;15.50;99.90
17845;DHT22;9047;53.486;10.218;2023-07-30T02:30:39;15.50;99.90
17845;DHT22;9047;53.486;10.218;2023-07-30T02:33:06;15.50;99.90
17845;DHT22;9047;53.486;10.218;2023-07-30T02:35:33;15.40;99.90
17845;DHT22;9047;53.486;10.218;2023-07-30T02:38:00;15.40;99.90
17845;DHT22;9047;53.486;10.218;2023-07-30T02:40:26;15.40;99.90
17845;DHT22;9047;53.486;10.218;2023-07-30T02:42:53;15.40;99.90
17845;DHT22;9047;53.486;10.218;2023-07-30T02:45:20;15.30;99.90
17845;DHT22;9047;53.486;10.218;2023-07-30T02:47:48;15.30;99.90
17845;DHT22;9047;53.486;10.218;2023-07-30T02:50:15;15.30;99.90
17845;DHT22;9047;53.486;10.218;2023-07-30T02:52:42;15.30;99.90
17845;DHT22;9047;53.486;10.218;2023-07-30T02:55:09;15.30;99.90
17845;DHT22;9047;53.486;10.218;2023-07-30T02:57:36;15.30;99.90
17845;DHT22;9047;53.486;10.218;2023-07-30T03:00:04;15.30;99.90
17845;DHT22;9047;53.486;10.218;2023-07-30T03:02:31;15.20;99.90
17845;DHT22;9047;53.486;10.218;2023-07-30T03:05:00;15.30;99.90
17845;DHT22;9047;53.486;10.218;2023-07-30T03:07:27;15.30;99.90
17845;DHT22;9047;53.486;10.218;2023-07-30T03:09:54;15.20;99.90
17845;DHT22;9047;53.486;10.218;2023-07-30T03:12:21;15.30;99.90
17845;DHT22;9047;53.486;10.218;2023-07-30T03:14:49;15.20;99.90
17845;DHT22;9047;53.486;10.218;2023-07-30T03:17:16;15.20;99.90
17845;DHT22;9047;53.486;10.218;2023-07-30T03:19:43;15.10;99.90
17845;DHT22;9047;53.486;10.218;2023-07-30T03:22:11;15.10;99.90
17845;DHT22;9047;53.486;10.218;2023-07-30T03:24:38;15.10;99.90
17845;DHT22;9047;53.486;10.218;2023-07-30T03:27:06;15.00;99.90
17845;DHT22;9047;53.486;10.218;2023-07-30T03:29:33;15.00;99.90
17845;DHT22;9047;53.486;10.218;2023-07-30T03:32:00;15.00;99.90
17845;DHT22;9047;53.486;10.218;2023-07-30T03:34:27;15.00;99.90
17845;DHT22;9047;53.486;10.218;2023-07-30T03:36:54;14.90;99.90
17845;DHT22;9047;53.486;10.218;2023-07-30T03:39:23;14.90;99.90
17845;DHT22;9047;53.486;10.218;2023-07-30T03:41:51;14.90;99.90
17845;DHT22;9047;53.486;10.218;2023-07-30T03:44:18;14.80;99.90
17845;DHT22;9047;53.486;10.218;2023-07-30T03:46:45;14.80;99.90
17845;DHT22;9047;53.486;10.218;2023-07-30T03:49:12;14.80;99.90
17845;DHT22;9047;53.486;10.218;2023-07-30T03:51:40;14.80;99.90
17845;DHT22;9047;53.486;10.218;2023-07-30T03:54:06;14.80;99.90
17845;DHT22;9047;53.486;10.218;2023-07-30T03:56:35;14.70;99.90
17845;DHT22;9047;53.486;10.218;2023-07-30T03:59:02;14.80;99.90
17845;DHT22;9047;53.486;10.218;2023-07-30T04:01:29;14.80;99.90
17845;DHT22;9047;53.486;10.218;2023-07-30T04:03:56;14.80;99.90
17845;DHT22;9047;53.486;10.218;2023-07-30T04:06:23;14.80;99.90
17845;DHT22;9047;53.486;10.218;2023-07-30T04:08:50;14.80;99.90
17845;DHT22;9047;53.486;10.218;2023-07-30T04:11:17;14.80;99.90
17845;DHT22;9047;53.486;10.218;2023-07-30T04:13:46;14.80;99.90
17845;DHT22;9047;53.486;10.218;2023-07-30T04:16:13;14.80;99.90
17845;DHT22;9047;53.486;10.218;2023-07-30T04:18:40;14.80;99.90
17845;DHT22;9047;53.486;10.218;2023-07-30T04:21:07;14.90;99.90
17845;DHT22;9047;53.486;10.218;2023-07-30T04:23:34;14.90;99.90
17845;DHT22;9047;53.486;10.218;2023-07-30T04:26:02;14.90;99.90
17845;DHT22;9047;53.486;10.218;2023-07-30T04:28:29;14.90;99.90
17845;DHT22;9047;53.486;10.218;2023-07-30T04:30:58;15.00;99.90
17845;DHT22;9047;53.486;10.218;2023-07-30T04:33:24;15.00;99.90
17845;DHT22;9047;53.486;10.218;2023-07-30T04:35:52;15.00;99.90
17845;DHT22;9047;53.486;10.218;2023-07-30T04:38:19;15.10;99.90
17845;DHT22;9047;53.486;10.218;2023-07-30T04:40:46;15.10;99.90
17845;DHT22;9047;53.486;10.218;2023-07-30T04:43:13;15.10;99.90
17845;DHT22;9047;53.486;10.218;2023-07-30T04:45:40;15.10;99.90
17845;DHT22;9047;53.486;10.218;2023-07-30T04:48:08;15.20;99.90
17845;DHT22;9047;53.486;10.218;2023-07-30T04:50:35;15.20;99.90
17845;DHT22;9047;53.486;10.218;2023-07-30T04:53:03;15.20;99.90
17845;DHT22;9047;53.486;10.218;2023-07-30T04:55:30;15.20;99.90
17845;DHT22;9047;53.486;10.218;2023-07-30T04:57:57;15.30;99.90
17845;DHT22;9047;53.486;10.218;2023-07-30T05:00:25;15.30;99.90
17845;DHT22;9047;53.486;10.218;2023-07-30T05:02:52;15.40;99.90
17845;DHT22;9047;53.486;10.218;2023-07-30T05:05:20;15.40;99.90
17845;DHT22;9047;53.486;10.218;2023-07-30T05:07:47;15.50;99.90
17845;DHT22;9047;53.486;10.218;2023-07-30T05:10:14;15.50;99.90
17845;DHT22;9047;53.486;10.218;2023-07-30T05:12:42;15.60;99.90
17845;DHT22;9047;53.486;10.218;2023-07-30T05:15:09;15.60;99.90
17845;DHT22;9047;53.486;10.218;2023-07-30T05:17:36;15.70;99.90
17845;DHT22;9047;53.486;10.218;2023-07-30T05:20:03;15.70;99.90
17845;DHT22;9047;53.486;10.218;2023-07-30T05:22:32;15.70;99.90
17845;DHT22;9047;53.486;10.218;2023-07-30T05:25:00;15.80;99.90
17845;DHT22;9047;53.486;10.218;2023-07-30T05:27:28;15.90;99.90
17845;DHT22;9047;53.486;10.218;2023-07-30T05:29:57;15.90;99.90
17845;DHT22;9047;53.486;10.218;2023-07-30T05:32:23;16.00;99.90
17845;DHT22;9047;53.486;10.218;2023-07-30T05:34:50;16.00;99.90
17845;DHT22;9047;53.486;10.218;2023-07-30T05:37:17;16.10;99.90
17845;DHT22;9047;53.486;10.218;2023-07-30T05:39:45;16.10;99.90
17845;DHT22;9047;53.486;10.218;2023-07-30T05:42:12;16.20;99.90
17845;DHT22;9047;53.486;10.218;2023-07-30T05:44:39;16.20;99.90
17845;DHT22;9047;53.486;10.218;2023-07-30T05:47:06;16.30;99.90
17845;DHT22;9047;53.486;10.218;2023-07-30T05:49:33;16.30;99.90
17845;DHT22;9047;53.486;10.218;2023-07-30T05:52:00;16.30;99.90
17845;DHT22;9047;53.486;10.218;2023-07-30T05:54:27;16.40;99.90
17845;DHT22;9047;53.486;10.218;2023-07-30T05:56:56;16.40;99.90
17845;DHT22;9047;53.486;10.218;2023-07-30T05:59:23;16.50;99.90
17845;DHT22;9047;53.486;10.218;2023-07-30T06:01:49;16.50;99.90
17845;DHT22;9047;53.486;10.218;2023-07-30T06:04:17;16.50;99.90
17845;DHT22;9047;53.486;10.218;2023-07-30T06:06:44;16.50;99.90
17845;DHT22;9047;53.486;10.218;2023-07-30T06:09:11;16.60;99.90
17845;DHT22;9047;53.486;10.218;2023-07-30T06:11:38;16.60;99.90
